createdAt,value
2022-09-15T00:01:49.001Z,2.58
2022-09-15T00:04:15.430Z,2.53
2022-09-15T00:06:41.969Z,2.22
2022-09-15T00:09:08.371Z,2.30
2022-09-15T00:11:36.881Z,2.53
2022-09-15T00:14:06.325Z,2.20
2022-09-15T00:16:33.009Z,2.83
2022-09-15T00:19:00.405Z,2.47
2022-09-15T00:21:32.460Z,2.55
2022-09-15T00:23:59.804Z,2.47
2022-09-15T00:26:27.878Z,2.90
2022-09-15T00:28:54.751Z,2.70
2022-09-15T00:31:22.999Z,3.00
2022-09-15T00:33:50.812Z,2.95
2022-09-15T00:36:17.968Z,2.50
2022-09-15T00:38:44.641Z,2.95
2022-09-15T00:41:13.460Z,2.75
2022-09-15T00:43:58.133Z,2.80
2022-09-15T00:46:28.967Z,2.53
2022-09-15T00:49:23.324Z,2.60
2022-09-15T00:54:29.375Z,2.90
2022-09-15T00:56:58.480Z,2.90
2022-09-15T00:59:27.204Z,3.20
2022-09-15T01:02:06.073Z,2.75
2022-09-15T01:04:32.487Z,3.15
2022-09-15T01:07:02.350Z,3.25
2022-09-15T01:09:34.750Z,2.90
2022-09-15T01:12:01.876Z,3.10
2022-09-15T01:14:28.245Z,2.95
2022-09-15T01:17:06.893Z,3.03
2022-09-15T01:19:59.954Z,2.83
2022-09-15T01:23:03.221Z,2.70
2022-09-15T01:25:54.360Z,2.70
2022-09-15T01:28:38.660Z,3.13
2022-09-15T01:31:25.240Z,2.60
2022-09-15T01:33:58.900Z,2.42
2022-09-15T01:36:31.011Z,2.38
2022-09-15T01:39:06.153Z,2.42
2022-09-15T01:41:44.637Z,2.28
2022-09-15T01:44:24.986Z,2.35
2022-09-15T01:47:03.382Z,2.92
2022-09-15T01:49:53.840Z,2.53
2022-09-15T01:52:22.654Z,2.10
2022-09-15T01:54:53.867Z,2.60
2022-09-15T01:57:21.391Z,2.03
2022-09-15T01:59:51.932Z,2.13
2022-09-15T02:02:22.986Z,2.35
2022-09-15T02:04:55.320Z,2.63
2022-09-15T02:07:39.100Z,2.22
2022-09-15T02:10:12.906Z,2.75
2022-09-15T02:12:44.793Z,1.90
2022-09-15T02:15:14.879Z,2.20
2022-09-15T02:17:43.541Z,2.10
2022-09-15T02:20:20.129Z,2.28
2022-09-15T02:22:50.318Z,2.10
2022-09-15T02:25:19.526Z,2.17
2022-09-15T02:27:50.124Z,2.10
2022-09-15T02:30:17.973Z,1.90
2022-09-15T02:32:49.000Z,1.92
2022-09-15T02:35:17.047Z,2.20
2022-09-15T02:37:43.611Z,2.30
2022-09-15T02:40:10.678Z,2.28
2022-09-15T02:42:37.160Z,1.95
2022-09-15T02:45:04.045Z,2.72
2022-09-15T02:47:30.405Z,2.03
2022-09-15T02:49:57.060Z,1.98
2022-09-15T02:52:23.481Z,1.83
2022-09-15T02:54:50.408Z,2.47
2022-09-15T02:57:16.805Z,1.80
2022-09-15T03:00:01.728Z,1.80
2022-09-15T03:02:28.159Z,2.90
2022-09-15T03:04:54.563Z,1.52
2022-09-15T03:07:21.575Z,1.90
2022-09-15T03:09:47.928Z,1.42
2022-09-15T03:12:14.551Z,1.83
2022-09-15T03:14:40.914Z,1.80
2022-09-15T03:17:07.249Z,1.50
2022-09-15T03:19:33.596Z,1.50
2022-09-15T03:21:59.957Z,1.98
2022-09-15T03:24:26.350Z,1.55
2022-09-15T03:26:53.214Z,1.60
2022-09-15T03:29:19.565Z,1.40
2022-09-15T03:31:45.964Z,1.48
2022-09-15T03:34:12.343Z,2.08
2022-09-15T03:36:38.688Z,1.50
2022-09-15T03:39:05.051Z,1.50
2022-09-15T03:41:31.405Z,1.50
2022-09-15T03:43:57.811Z,1.40
2022-09-15T03:46:24.165Z,1.80
2022-09-15T03:48:50.515Z,1.30
2022-09-15T03:51:16.917Z,1.48
2022-09-15T03:53:43.287Z,1.58
2022-09-15T03:56:22.846Z,1.60
2022-09-15T03:58:49.575Z,1.60
2022-09-15T04:01:16.116Z,1.50
2022-09-15T04:03:47.597Z,1.30
2022-09-15T04:06:17.298Z,1.70
2022-09-15T04:08:43.827Z,1.58
2022-09-15T04:11:11.923Z,1.60
2022-09-15T04:13:39.366Z,1.40
2022-09-15T04:16:08.076Z,1.60
2022-09-15T04:18:35.350Z,1.65
2022-09-15T04:21:04.070Z,1.50
2022-09-15T04:23:30.426Z,2.05
2022-09-15T04:26:01.700Z,1.80
2022-09-15T04:28:29.757Z,1.70
2022-09-15T04:31:09.711Z,1.60
2022-09-15T04:33:36.770Z,1.45
2022-09-15T04:36:06.077Z,1.30
2022-09-15T04:38:32.685Z,1.60
2022-09-15T04:40:59.285Z,1.55
2022-09-15T04:43:27.022Z,1.42
2022-09-15T04:45:54.224Z,1.52
2022-09-15T04:48:21.958Z,1.50
2022-09-15T04:50:48.316Z,1.35
2022-09-15T04:53:15.026Z,1.42
2022-09-15T04:55:41.397Z,1.60
2022-09-15T04:58:08.965Z,1.55
2022-09-15T05:00:42.381Z,1.60
2022-09-15T05:03:13.327Z,1.55
2022-09-15T05:05:40.536Z,1.83
2022-09-15T05:08:08.043Z,1.77
2022-09-15T05:10:34.436Z,1.50
2022-09-15T05:13:00.800Z,1.73
2022-09-15T05:15:27.191Z,1.50
2022-09-15T05:17:53.661Z,1.55
2022-09-15T05:20:20.026Z,1.85
2022-09-15T05:22:46.384Z,1.60
2022-09-15T05:25:13.036Z,1.73
2022-09-15T05:27:39.514Z,1.70
2022-09-15T05:30:35.183Z,1.52
2022-09-15T05:32:53.997Z,1.48
2022-09-15T05:35:20.403Z,1.70
2022-09-15T05:37:46.911Z,1.65
2022-09-15T05:40:13.341Z,1.65
2022-09-15T05:42:40.335Z,1.58
2022-09-15T05:45:07.485Z,1.73
2022-09-15T05:47:33.848Z,1.90
2022-09-15T05:50:00.233Z,2.33
2022-09-15T05:52:26.604Z,1.63
2022-09-15T05:54:56.940Z,1.52
2022-09-15T05:57:25.286Z,1.63
2022-09-15T05:59:51.646Z,1.58
2022-09-15T06:02:18.092Z,1.50
2022-09-15T06:04:44.526Z,1.75
2022-09-15T06:07:10.915Z,2.00
2022-09-15T06:09:37.757Z,1.60
2022-09-15T06:12:04.189Z,1.88
2022-09-15T06:14:30.533Z,1.75
2022-09-15T06:16:57.200Z,1.85
2022-09-15T06:19:23.565Z,1.50
2022-09-15T06:21:49.937Z,1.70
2022-09-15T06:24:16.351Z,1.50
2022-09-15T06:26:42.744Z,1.80
2022-09-15T06:29:11.614Z,1.70
2022-09-15T06:31:38.484Z,1.70
2022-09-15T06:34:05.325Z,1.98
2022-09-15T06:36:32.214Z,2.00
2022-09-15T06:38:58.805Z,1.60
2022-09-15T06:41:25.653Z,2.42
2022-09-15T06:43:52.966Z,1.58
2022-09-15T06:46:21.925Z,1.73
2022-09-15T06:48:48.909Z,1.88
2022-09-15T06:51:17.022Z,2.35
2022-09-15T06:53:44.020Z,2.00
2022-09-15T06:56:13.410Z,1.73
2022-09-15T06:58:41.122Z,1.98
2022-09-15T07:01:13.009Z,1.50
2022-09-15T07:03:41.142Z,2.05
2022-09-15T07:06:08.121Z,2.38
2022-09-15T07:08:34.702Z,2.00
2022-09-15T07:11:01.227Z,1.80
2022-09-15T07:13:31.676Z,1.50
2022-09-15T07:16:00.043Z,1.55
2022-09-15T07:18:26.728Z,1.77
2022-09-15T07:21:01.710Z,1.20
2022-09-15T07:23:28.358Z,1.40
2022-09-15T07:26:14.318Z,1.48
2022-09-15T07:28:42.768Z,1.67
2022-09-15T07:31:10.741Z,1.35
2022-09-15T07:33:37.389Z,1.75
2022-09-15T07:36:07.853Z,1.40
2022-09-15T07:38:35.151Z,1.60
2022-09-15T07:41:05.989Z,1.70
2022-09-15T07:43:32.764Z,1.63
2022-09-15T07:45:59.833Z,1.52
2022-09-15T07:48:26.731Z,1.45
2022-09-15T07:50:53.335Z,1.30
2022-09-15T07:53:20.625Z,1.33
2022-09-15T07:55:52.466Z,1.25
2022-09-15T07:58:19.157Z,1.70
2022-09-15T08:00:47.356Z,1.13
2022-09-15T08:03:14.756Z,1.48
2022-09-15T08:05:45.245Z,1.38
2022-09-15T08:08:12.040Z,1.60
2022-09-15T08:10:40.000Z,1.60
2022-09-15T08:13:06.435Z,1.45
2022-09-15T08:15:38.651Z,4.07
2022-09-15T08:18:05.734Z,1.48
2022-09-15T08:20:32.484Z,1.25
2022-09-15T08:22:58.996Z,1.67
2022-09-15T08:25:25.446Z,1.23
2022-09-15T08:27:53.985Z,1.50
2022-09-15T08:30:21.210Z,1.35
2022-09-15T08:32:47.769Z,1.52
2022-09-15T08:35:14.786Z,1.70
2022-09-15T08:37:41.319Z,1.50
2022-09-15T08:40:14.463Z,1.42
2022-09-15T08:42:44.820Z,1.52
2022-09-15T08:45:22.463Z,1.40
2022-09-15T08:47:55.853Z,1.58
2022-09-15T08:50:40.077Z,1.67
2022-09-15T08:53:11.813Z,1.60
2022-09-15T08:55:51.049Z,1.70
2022-09-15T08:58:19.323Z,1.67
2022-09-15T09:00:49.249Z,1.85
2022-09-15T09:03:34.002Z,1.33
2022-09-15T09:06:12.020Z,1.88
2022-09-15T09:08:55.157Z,1.38
2022-09-15T09:11:37.718Z,1.77
2022-09-15T09:14:14.235Z,1.52
2022-09-15T09:17:11.770Z,1.67
2022-09-15T09:20:00.036Z,1.90
2022-09-15T09:22:32.414Z,1.70
2022-09-15T09:25:00.227Z,1.55
2022-09-15T09:27:31.647Z,1.50
2022-09-15T09:30:04.840Z,1.48
2022-09-15T09:32:40.305Z,1.50
2022-09-15T09:35:32.217Z,1.40
2022-09-15T09:38:00.103Z,1.40
2022-09-15T09:40:27.774Z,1.90
2022-09-15T09:42:54.187Z,1.67
2022-09-15T09:45:20.582Z,1.40
2022-09-15T09:47:46.932Z,1.50
2022-09-15T09:50:35.397Z,1.52
2022-09-15T09:53:27.521Z,1.67
2022-09-15T09:55:55.185Z,1.50
2022-09-15T09:58:25.675Z,1.30
2022-09-15T10:00:52.476Z,1.40
2022-09-15T10:03:24.571Z,1.40
2022-09-15T10:06:05.709Z,1.83
2022-09-15T10:08:32.167Z,1.70
2022-09-15T10:11:04.264Z,1.90
2022-09-15T10:13:30.836Z,2.58
2022-09-15T10:16:00.120Z,1.52
2022-09-15T10:18:34.968Z,1.60
2022-09-15T10:21:03.846Z,1.73
2022-09-15T10:23:31.748Z,1.80
2022-09-15T10:26:19.132Z,1.85
2022-09-15T10:29:10.103Z,1.90
2022-09-15T10:31:36.498Z,2.08
2022-09-15T10:34:25.230Z,1.77
2022-09-15T10:36:54.725Z,1.70
2022-09-15T10:39:27.475Z,1.60
2022-09-15T10:42:21.457Z,1.80
2022-09-15T10:44:53.827Z,1.45
2022-09-15T10:47:39.717Z,1.80
2022-09-15T10:50:24.880Z,1.70
2022-09-15T10:53:00.096Z,1.63
2022-09-15T10:55:52.919Z,1.95
2022-09-15T10:59:07.914Z,1.60
2022-09-15T11:01:49.930Z,1.40
2022-09-15T11:04:25.220Z,2.22
2022-09-15T11:07:06.564Z,1.60
2022-09-15T11:09:48.819Z,1.73
2022-09-15T11:12:29.229Z,1.50
2022-09-15T11:15:05.246Z,1.73
2022-09-15T11:20:22.726Z,1.63
2022-09-15T11:22:56.508Z,1.70
2022-09-15T11:25:32.112Z,1.45
2022-09-15T11:28:09.911Z,1.45
2022-09-15T11:30:44.501Z,1.40
2022-09-15T11:33:39.540Z,1.50
2022-09-15T11:36:13.281Z,1.40
2022-09-15T11:38:47.797Z,1.50
2022-09-15T11:41:17.617Z,1.40
2022-09-15T11:43:57.126Z,1.38
2022-09-15T11:46:31.913Z,1.33
2022-09-15T11:49:07.768Z,1.35
2022-09-15T11:51:39.613Z,1.30
2022-09-15T11:54:17.200Z,1.50
2022-09-15T11:56:47.353Z,1.27
2022-09-15T11:59:39.047Z,1.63
2022-09-15T12:02:24.246Z,1.65
2022-09-15T12:05:11.365Z,1.58
2022-09-15T12:07:45.083Z,1.30
2022-09-15T12:10:19.115Z,1.65
2022-09-15T12:12:46.620Z,1.23
2022-09-15T12:15:18.204Z,1.45
2022-09-15T12:17:50.722Z,1.27
2022-09-15T12:20:31.441Z,1.48
2022-09-15T12:23:02.580Z,1.48
2022-09-15T12:25:47.779Z,1.60
2022-09-15T12:28:23.301Z,1.63
2022-09-15T12:31:25.361Z,1.45
2022-09-15T12:33:55.696Z,1.38
2022-09-15T12:36:37.221Z,1.60
2022-09-15T12:39:17.124Z,1.42
2022-09-15T12:41:48.369Z,1.73
2022-09-15T12:44:25.023Z,1.73
2022-09-15T12:46:54.053Z,1.60
2022-09-15T12:49:23.351Z,1.65
2022-09-15T12:51:50.241Z,1.50
2022-09-15T12:54:23.730Z,1.52
2022-09-15T12:56:54.369Z,1.50
2022-09-15T12:59:25.249Z,1.52
2022-09-15T13:01:52.985Z,1.60
2022-09-15T13:04:27.577Z,1.70
2022-09-15T13:07:21.512Z,1.45
2022-09-15T13:10:27.749Z,1.52
2022-09-15T13:13:18.659Z,1.52
2022-09-15T13:15:47.018Z,1.40
2022-09-15T13:18:14.640Z,1.50
2022-09-15T13:20:49.079Z,1.80
2022-09-15T13:23:15.701Z,1.70
2022-09-15T13:25:44.584Z,1.42
2022-09-15T13:28:11.878Z,1.33
2022-09-15T13:30:57.079Z,1.52
2022-09-15T13:40:06.284Z,1.33
2022-09-15T13:42:44.203Z,1.77
2022-09-15T13:45:32.230Z,1.70
2022-09-15T13:48:12.724Z,2.22
2022-09-15T13:50:59.808Z,1.70
2022-09-15T13:53:26.060Z,1.63
2022-09-15T13:55:55.457Z,1.65
2022-09-15T14:01:12.464Z,1.40
2022-09-15T14:03:38.914Z,1.25
2022-09-15T14:06:17.917Z,1.30
2022-09-15T14:08:46.420Z,1.27
2022-09-15T14:11:17.155Z,1.27
2022-09-15T14:13:47.037Z,1.77
2022-09-15T14:16:25.595Z,1.42
2022-09-15T14:18:54.250Z,1.20
2022-09-15T14:21:29.715Z,1.25
2022-09-15T14:24:05.900Z,1.17
2022-09-15T14:26:35.280Z,1.20
2022-09-15T14:29:04.110Z,1.40
2022-09-15T14:31:37.886Z,1.38
2022-09-15T14:34:07.630Z,1.52
2022-09-15T14:36:34.438Z,1.30
2022-09-15T14:39:16.678Z,1.30
2022-09-15T14:41:43.307Z,1.55
2022-09-15T14:47:26.299Z,1.10
2022-09-15T14:50:16.512Z,1.45
2022-09-15T14:52:53.396Z,1.55
2022-09-15T14:55:47.866Z,1.60
2022-09-15T14:58:22.690Z,1.33
2022-09-15T15:01:09.427Z,1.35
2022-09-15T15:03:56.648Z,1.52
2022-09-15T15:06:29.958Z,1.27
2022-09-15T15:09:12.393Z,1.40
2022-09-15T15:11:40.105Z,1.85
2022-09-15T15:14:07.846Z,1.40
2022-09-15T15:16:34.898Z,1.52
2022-09-15T15:19:01.538Z,1.40
2022-09-15T15:21:41.247Z,1.23
2022-09-15T15:24:17.698Z,1.60
2022-09-15T15:26:48.907Z,1.63
2022-09-15T15:29:42.588Z,1.13
2022-09-15T15:32:21.764Z,1.50
2022-09-15T15:34:53.276Z,1.40
2022-09-15T15:37:29.744Z,1.50
2022-09-15T15:39:57.514Z,1.65
2022-09-15T15:42:24.391Z,1.42
2022-09-15T15:45:09.441Z,1.50
2022-09-15T15:47:36.748Z,1.52
2022-09-15T15:50:14.568Z,1.30
2022-09-15T15:52:41.613Z,1.40
2022-09-15T15:55:09.393Z,1.23
2022-09-15T15:57:38.200Z,1.38
2022-09-15T16:00:16.611Z,1.60
2022-09-15T16:02:46.782Z,1.27
2022-09-15T16:05:13.721Z,1.25
2022-09-15T16:07:40.608Z,1.40
2022-09-15T16:10:08.447Z,1.40
2022-09-15T16:12:35.544Z,1.60
2022-09-15T16:15:02.767Z,1.40
2022-09-15T16:17:29.118Z,1.20
2022-09-15T16:19:55.865Z,1.60
2022-09-15T16:22:22.329Z,1.73
2022-09-15T16:24:48.750Z,1.50
2022-09-15T16:27:17.245Z,1.90
2022-09-15T16:29:44.887Z,1.23
2022-09-15T16:32:18.652Z,2.70
2022-09-15T16:34:45.164Z,1.50
2022-09-15T16:37:11.564Z,1.50
2022-09-15T16:39:37.914Z,1.30
2022-09-15T16:42:04.631Z,1.95
2022-09-15T16:44:31.130Z,1.50
2022-09-15T16:46:57.552Z,2.08
2022-09-15T16:49:23.994Z,1.63
2022-09-15T16:51:50.336Z,1.40
2022-09-15T16:54:18.916Z,1.65
2022-09-15T16:56:46.049Z,1.52
2022-09-15T16:59:12.571Z,1.58
2022-09-15T17:01:39.604Z,2.10
2022-09-15T17:04:12.906Z,1.70
2022-09-15T17:06:39.284Z,1.77
2022-09-15T17:09:05.647Z,1.65
2022-09-15T17:11:32.002Z,1.52
2022-09-15T17:13:58.347Z,1.55
2022-09-15T17:16:40.493Z,2.03
2022-09-15T17:19:07.117Z,1.40
2022-09-15T17:21:33.515Z,1.50
2022-09-15T17:23:59.863Z,1.48
2022-09-15T17:26:30.530Z,1.50
2022-09-15T17:28:58.261Z,1.40
2022-09-15T17:31:25.055Z,1.40
2022-09-15T17:33:52.058Z,1.60
2022-09-15T17:36:18.514Z,1.23
2022-09-15T17:38:45.938Z,1.20
2022-09-15T17:41:20.358Z,1.23
2022-09-15T17:43:46.970Z,1.42
2022-09-15T17:46:13.511Z,1.50
2022-09-15T17:48:40.038Z,1.45
2022-09-15T17:51:07.684Z,1.40
2022-09-15T17:53:34.125Z,1.15
2022-09-15T17:56:00.524Z,1.48
2022-09-15T17:58:26.948Z,1.58
2022-09-15T18:00:53.972Z,1.10
2022-09-15T18:03:38.780Z,1.58
2022-09-15T18:06:07.504Z,1.33
2022-09-15T18:08:34.145Z,1.98
2022-09-15T18:11:00.743Z,1.42
2022-09-15T18:13:29.890Z,1.35
2022-09-15T18:15:57.130Z,1.65
2022-09-15T18:18:26.182Z,1.10
2022-09-15T18:20:53.958Z,1.13
2022-09-15T18:23:22.814Z,1.33
2022-09-15T18:25:49.627Z,1.45
2022-09-15T18:28:17.089Z,1.30
2022-09-15T18:30:45.483Z,1.42
2022-09-15T18:33:21.203Z,1.42
2022-09-15T18:35:48.895Z,1.33
2022-09-15T18:38:15.665Z,1.40
2022-09-15T18:40:46.824Z,1.40
2022-09-15T18:43:13.217Z,1.50
2022-09-15T18:45:40.992Z,1.20
2022-09-15T18:48:11.955Z,1.25
2022-09-15T18:50:40.871Z,1.45
2022-09-15T18:53:07.358Z,1.30
2022-09-15T18:55:33.695Z,1.33
2022-09-15T18:58:01.182Z,1.35
2022-09-15T19:00:28.577Z,1.77
2022-09-15T19:03:00.134Z,1.20
2022-09-15T19:05:27.760Z,1.30
2022-09-15T19:07:54.093Z,1.23
2022-09-15T19:10:20.611Z,1.20
2022-09-15T19:12:47.131Z,1.83
2022-09-15T19:15:13.916Z,1.30
2022-09-15T19:17:41.134Z,1.52
2022-09-15T19:20:08.975Z,1.35
2022-09-15T19:22:36.079Z,1.30
2022-09-15T19:25:03.586Z,1.77
2022-09-15T19:27:30.163Z,1.58
2022-09-15T19:29:56.508Z,1.80
2022-09-15T19:32:23.139Z,1.45
2022-09-15T19:34:49.571Z,1.70
2022-09-15T19:37:19.057Z,1.40
2022-09-15T19:39:46.047Z,1.25
2022-09-15T19:42:12.723Z,1.40
2022-09-15T19:44:40.983Z,1.65
2022-09-15T19:47:07.587Z,1.63
2022-09-15T19:49:33.960Z,1.67
2022-09-15T19:52:00.502Z,1.83
2022-09-15T19:54:29.727Z,1.55
2022-09-15T19:56:56.540Z,1.92
2022-09-15T19:59:27.444Z,2.10
2022-09-15T20:01:56.817Z,1.80
2022-09-15T20:04:23.213Z,1.75
2022-09-15T20:06:49.582Z,2.03
2022-09-15T20:09:16.146Z,1.80
2022-09-15T20:11:42.516Z,1.92
2022-09-15T20:14:09.225Z,1.77
2022-09-15T20:16:35.691Z,1.80
2022-09-15T20:19:04.170Z,1.92
2022-09-15T20:21:49.749Z,1.63
2022-09-15T20:24:18.251Z,1.50
2022-09-15T20:26:44.762Z,2.20
2022-09-15T20:29:11.333Z,1.80
2022-09-15T20:31:37.710Z,1.73
2022-09-15T20:34:04.116Z,2.03
2022-09-15T20:36:35.366Z,2.00
2022-09-15T20:39:03.236Z,1.80
2022-09-15T20:41:32.138Z,1.60
2022-09-15T20:43:58.860Z,1.88
2022-09-15T20:46:25.423Z,1.92
2022-09-15T20:48:52.142Z,1.90
2022-09-15T20:51:23.588Z,1.63
2022-09-15T20:53:52.233Z,1.90
2022-09-15T20:56:21.157Z,1.65
2022-09-15T20:58:47.537Z,1.85
2022-09-15T21:01:16.257Z,1.63
2022-09-15T21:03:44.209Z,1.83
2022-09-15T21:06:18.958Z,1.67
2022-09-15T21:08:47.349Z,1.90
2022-09-15T21:11:15.762Z,2.10
2022-09-15T21:13:43.338Z,2.45
2022-09-15T21:16:12.549Z,2.03
2022-09-15T21:18:39.996Z,2.05
2022-09-15T21:21:12.808Z,2.03
2022-09-15T21:23:50.535Z,1.70
2022-09-15T21:26:27.876Z,1.73
2022-09-15T21:28:55.566Z,1.67
2022-09-15T21:31:24.595Z,1.83
2022-09-15T21:33:52.068Z,1.80
2022-09-15T21:36:23.813Z,1.70
2022-09-15T21:38:52.393Z,1.65
2022-09-15T21:41:21.365Z,2.10
2022-09-15T21:43:48.543Z,1.50
2022-09-15T21:46:19.811Z,1.85
2022-09-15T21:48:47.239Z,1.85
2022-09-15T21:51:15.457Z,1.70
2022-09-15T21:53:42.886Z,1.80
2022-09-15T21:56:11.861Z,1.70
2022-09-15T21:58:43.036Z,1.77
2022-09-15T22:01:18.870Z,1.80
2022-09-15T22:03:51.374Z,1.98
2022-09-15T22:06:19.452Z,1.77
2022-09-15T22:08:46.638Z,2.03
2022-09-15T22:11:13.191Z,2.42
2022-09-15T22:13:40.807Z,2.38
2022-09-15T22:16:16.679Z,2.38
2022-09-15T22:18:43.528Z,2.70
2022-09-15T22:21:21.098Z,2.72
2022-09-15T22:23:48.446Z,2.65
2022-09-15T22:26:20.846Z,2.63
2022-09-15T22:28:47.379Z,2.38
2022-09-15T22:31:16.055Z,2.40
2022-09-15T22:33:42.831Z,2.38
2022-09-15T22:36:13.957Z,2.50
2022-09-15T22:38:40.390Z,2.25
2022-09-15T22:41:09.131Z,2.22
2022-09-15T22:43:36.142Z,2.40
2022-09-15T22:46:02.647Z,2.72
2022-09-15T22:48:29.186Z,2.65
2022-09-15T22:50:55.585Z,2.33
2022-09-15T22:53:23.358Z,2.17
2022-09-15T22:56:04.854Z,2.22
2022-09-15T22:58:32.782Z,2.22
2022-09-15T23:01:12.224Z,1.83
2022-09-15T23:03:38.949Z,2.05
2022-09-15T23:06:06.019Z,1.90
2022-09-15T23:08:32.939Z,1.95
2022-09-15T23:11:10.868Z,2.17
2022-09-15T23:13:37.649Z,1.98
2022-09-15T23:16:05.632Z,1.73
2022-09-15T23:18:32.480Z,2.47
2022-09-15T23:21:07.154Z,2.00
2022-09-15T23:23:38.548Z,2.28
2022-09-15T23:26:10.158Z,1.90
2022-09-15T23:28:37.182Z,1.80
2022-09-15T23:31:03.573Z,2.22
2022-09-15T23:33:34.521Z,1.67
2022-09-15T23:36:06.928Z,2.35
2022-09-15T23:38:37.336Z,1.83
2022-09-15T23:41:03.878Z,1.73
2022-09-15T23:43:30.625Z,1.88
2022-09-15T23:45:56.977Z,2.17
2022-09-15T23:48:23.565Z,1.80
2022-09-15T23:50:50.118Z,2.05
2022-09-15T23:53:16.494Z,2.08
2022-09-15T23:55:42.869Z,1.90
2022-09-15T23:58:10.284Z,1.77
